Wilmore, Pennsylvania
Current Conditions -  °F | °C
As of 3:54 PM on Sunday 23 Nov 2014 (Local Time) from KJST Reporting Station
Clear Clear  
Wind Chill: 54°   Ceiling: Unl
Heat Index: 54°   Visibility: 10mi
Dew Point: 31°   Wind: 10mph
Humidity: 41%   Direction: 140°SE
Pressure: 29.94"   Gusts: 18mph
Location:  40.39°N, 78.72°W
Report Text: KJST 232054Z AUTO 14009G16KT 10SM CLR 12/M01 A2994 RMK AO2 PK WND 14026/2010 SLP141 T01221006 58025
Loading
Personal Weather Stations






























Interactive Weather Map New forecast layout! Learn more

10-Day Weather Forecast

Advertisements
Track Severe Weather on mobile